createdAt,value
2023-02-22T00:00:08.654Z,8.90
2023-02-22T00:00:19.482Z,9.60
2023-02-22T00:00:29.962Z,10.20
2023-02-22T00:00:40.944Z,9.90
2023-02-22T00:00:51.714Z,9.20
2023-02-22T00:01:02.788Z,9.20
2023-02-22T00:01:13.826Z,9.60
2023-02-22T00:01:24.563Z,10.20
2023-02-22T00:01:36.062Z,10.10
2023-02-22T00:01:46.621Z,9.40
2023-02-22T00:01:57.327Z,8.90
2023-02-22T00:02:08.468Z,10.20
2023-02-22T00:02:19.439Z,10.40
2023-02-22T00:02:30.162Z,9.80
2023-02-22T00:02:41.231Z,9.60
2023-02-22T00:02:52.227Z,10.60
2023-02-22T00:03:03.000Z,11.30
2023-02-22T00:03:14.036Z,10.10
2023-02-22T00:03:25.293Z,9.60
2023-02-22T00:03:36.065Z,10.00
2023-02-22T00:03:47.123Z,10.70
2023-02-22T00:03:58.093Z,10.60
2023-02-22T00:04:08.870Z,10.30
2023-02-22T00:04:19.922Z,10.50
2023-02-22T00:04:30.891Z,12.00
2023-02-22T00:04:41.665Z,11.60
2023-02-22T00:04:52.713Z,10.90
2023-02-22T00:05:03.682Z,9.70
2023-02-22T00:05:14.498Z,10.90
2023-02-22T00:05:25.040Z,9.90
2023-02-22T00:05:35.968Z,9.80
2023-02-22T00:05:46.749Z,8.20
2023-02-22T00:05:57.785Z,9.10
2023-02-22T00:06:08.757Z,9.80
2023-02-22T00:06:19.522Z,10.20
2023-02-22T00:06:30.572Z,9.50
2023-02-22T00:06:41.548Z,10.20
2023-02-22T00:06:52.329Z,9.00
2023-02-22T00:07:03.384Z,9.40
2023-02-22T00:07:14.377Z,9.60
2023-02-22T00:07:25.142Z,12.80
2023-02-22T00:07:36.196Z,12.20
2023-02-22T00:07:47.162Z,12.20
2023-02-22T00:07:57.947Z,10.50
2023-02-22T00:08:08.993Z,11.00
2023-02-22T00:08:19.978Z,9.90
2023-02-22T00:08:30.737Z,9.30
2023-02-22T00:08:41.786Z,9.70
2023-02-22T00:08:52.760Z,9.80
2023-02-22T00:09:03.521Z,9.80
2023-02-22T00:09:14.596Z,11.80
2023-02-22T00:09:25.568Z,11.70
2023-02-22T00:09:36.344Z,12.20
2023-02-22T00:09:47.413Z,10.10
2023-02-22T00:09:58.368Z,10.80
2023-02-22T00:10:09.136Z,12.60
2023-02-22T00:10:19.701Z,10.30
2023-02-22T00:10:30.677Z,9.50
2023-02-22T00:10:41.440Z,9.70
2023-02-22T00:10:52.493Z,11.90
2023-02-22T00:11:03.462Z,11.20
2023-02-22T00:11:14.595Z,11.10
2023-02-22T00:11:25.240Z,9.10
2023-02-22T00:11:36.231Z,8.80
2023-02-22T00:11:46.982Z,8.50
2023-02-22T00:11:58.044Z,10.10
2023-02-22T00:12:09.000Z,10.00
2023-02-22T00:12:19.763Z,11.40
2023-02-22T00:12:30.805Z,11.40
2023-02-22T00:12:41.776Z,12.40
2023-02-22T00:12:52.548Z,12.00
2023-02-22T00:13:03.617Z,10.40
2023-02-22T00:13:14.644Z,10.40
2023-02-22T00:13:25.359Z,10.50
2023-02-22T00:13:36.408Z,11.50
2023-02-22T00:13:47.381Z,11.30
2023-02-22T00:13:58.175Z,10.60
2023-02-22T00:14:09.199Z,8.80
2023-02-22T00:14:20.215Z,9.30
2023-02-22T00:14:30.972Z,8.90
2023-02-22T00:14:42.027Z,8.70
2023-02-22T00:14:53.011Z,8.90
2023-02-22T00:15:03.782Z,9.30
2023-02-22T00:15:14.847Z,9.90
2023-02-22T00:15:25.817Z,9.90
2023-02-22T00:15:36.585Z,8.80
2023-02-22T00:15:47.636Z,10.90
2023-02-22T00:15:58.656Z,12.50
2023-02-22T00:16:09.408Z,13.00
2023-02-22T00:16:20.484Z,9.80
2023-02-22T00:16:31.445Z,8.70
2023-02-22T00:16:42.294Z,8.30
2023-02-22T00:16:52.800Z,9.30
2023-02-22T00:17:03.768Z,9.30
2023-02-22T00:17:14.533Z,10.00
2023-02-22T00:17:25.594Z,10.50
2023-02-22T00:17:36.552Z,9.60
2023-02-22T00:17:47.322Z,9.80
2023-02-22T00:17:58.360Z,10.10
2023-02-22T00:18:09.337Z,10.80
2023-02-22T00:18:20.144Z,9.40
2023-02-22T00:18:31.193Z,8.50
2023-02-22T00:18:42.225Z,8.30
2023-02-22T00:18:52.964Z,9.30
2023-02-22T00:19:04.009Z,9.60
2023-02-22T00:19:15.011Z,9.40
2023-02-22T00:19:25.795Z,8.90
2023-02-22T00:19:36.821Z,8.10
2023-02-22T00:19:47.787Z,8.70
2023-02-22T00:19:58.565Z,8.30
2023-02-22T00:20:09.622Z,8.60
2023-02-22T00:20:20.579Z,9.40
2023-02-22T00:20:31.358Z,10.10
2023-02-22T00:20:42.406Z,10.60
2023-02-22T00:20:53.383Z,9.40
2023-02-22T00:21:04.147Z,9.40
2023-02-22T00:21:15.544Z,9.00
2023-02-22T00:21:26.042Z,8.50
2023-02-22T00:21:36.829Z,8.50
2023-02-22T00:21:47.902Z,10.00
2023-02-22T00:21:58.872Z,10.90
2023-02-22T00:22:09.655Z,11.10
2023-02-22T00:22:20.693Z,9.30
2023-02-22T00:22:31.690Z,8.60
2023-02-22T00:22:42.430Z,8.60
2023-02-22T00:22:53.483Z,8.50
2023-02-22T00:23:04.443Z,9.50
2023-02-22T00:23:15.230Z,9.70
2023-02-22T00:23:26.266Z,10.50
2023-02-22T00:23:37.234Z,10.50
2023-02-22T00:23:48.058Z,11.50
2023-02-22T00:23:59.061Z,10.10
2023-02-22T00:24:10.025Z,9.90
2023-02-22T00:24:20.788Z,8.40
2023-02-22T00:24:31.850Z,8.00
2023-02-22T00:24:42.833Z,8.00
2023-02-22T00:24:53.576Z,8.40
2023-02-22T00:25:04.650Z,8.90
2023-02-22T00:25:15.621Z,9.20
2023-02-22T00:25:26.412Z,9.00
2023-02-22T00:25:37.430Z,8.40
2023-02-22T00:25:48.439Z,8.40
2023-02-22T00:25:59.175Z,7.90
2023-02-22T00:26:10.242Z,8.60
2023-02-22T00:26:21.257Z,8.90
2023-02-22T00:26:31.992Z,9.60
2023-02-22T00:26:43.026Z,8.40
2023-02-22T00:26:54.018Z,8.80
2023-02-22T00:27:04.776Z,8.90
2023-02-22T00:27:15.817Z,8.30
2023-02-22T00:27:26.799Z,7.80
2023-02-22T00:27:37.565Z,8.60
2023-02-22T00:27:48.627Z,9.00
2023-02-22T00:27:59.590Z,9.60
2023-02-22T00:28:10.348Z,8.80
2023-02-22T00:28:21.413Z,9.50
2023-02-22T00:28:32.371Z,9.50
2023-02-22T00:28:43.138Z,9.60
2023-02-22T00:28:54.301Z,8.60
2023-02-22T00:29:04.759Z,7.70
2023-02-22T00:29:15.544Z,7.60
2023-02-22T00:29:26.567Z,6.70
2023-02-22T00:29:37.547Z,7.00
2023-02-22T00:29:48.350Z,6.70
2023-02-22T00:29:59.362Z,7.30
2023-02-22T00:30:10.406Z,7.90
2023-02-22T00:30:21.139Z,7.90
2023-02-22T00:30:32.311Z,7.50
2023-02-22T00:30:42.757Z,8.70
2023-02-22T00:30:53.536Z,9.20
2023-02-22T00:31:04.588Z,8.90
2023-02-22T00:31:15.989Z,8.90
2023-02-22T00:31:26.747Z,9.40
2023-02-22T00:31:37.784Z,10.90
2023-02-22T00:31:48.886Z,11.40
2023-02-22T00:31:59.725Z,12.30
2023-02-22T00:32:10.292Z,10.60
2023-02-22T00:32:21.335Z,10.90
2023-02-22T00:32:32.152Z,9.40
2023-02-22T00:32:43.238Z,7.80
2023-02-22T00:32:54.186Z,7.90
2023-02-22T00:33:04.955Z,8.10
2023-02-22T00:33:16.008Z,9.20
2023-02-22T00:33:26.979Z,8.80
2023-02-22T00:33:37.784Z,8.10
2023-02-22T00:33:48.833Z,8.60
2023-02-22T00:33:59.793Z,8.50
2023-02-22T00:34:10.555Z,8.40
2023-02-22T00:34:21.617Z,8.50
2023-02-22T00:34:32.608Z,9.60
2023-02-22T00:34:43.364Z,8.80
2023-02-22T00:34:54.421Z,7.30
2023-02-22T00:35:05.384Z,7.30
2023-02-22T00:35:16.160Z,6.90
2023-02-22T00:35:27.205Z,7.40
2023-02-22T00:35:38.183Z,7.30
2023-02-22T00:35:48.951Z,7.30
2023-02-22T00:36:00.031Z,7.90
2023-02-22T00:36:10.975Z,7.50
2023-02-22T00:36:21.738Z,8.60
2023-02-22T00:36:32.788Z,7.80
2023-02-22T00:36:43.756Z,6.50
2023-02-22T00:36:54.516Z,7.50
2023-02-22T00:37:05.593Z,9.20
2023-02-22T00:37:16.573Z,10.40
2023-02-22T00:37:27.319Z,10.10
2023-02-22T00:37:38.370Z,7.90
2023-02-22T00:37:49.360Z,9.90
2023-02-22T00:38:00.119Z,9.80
2023-02-22T00:38:11.156Z,9.90
2023-02-22T00:38:22.116Z,8.10
2023-02-22T00:38:32.902Z,8.40
2023-02-22T00:38:43.947Z,8.20
2023-02-22T00:38:54.918Z,7.80
2023-02-22T00:39:05.681Z,7.70
2023-02-22T00:39:16.725Z,8.80
2023-02-22T00:39:27.690Z,9.40
2023-02-22T00:39:38.454Z,7.50
2023-02-22T00:39:49.521Z,8.70
2023-02-22T00:40:00.499Z,9.30
2023-02-22T00:40:11.246Z,8.90
2023-02-22T00:40:22.311Z,8.60
2023-02-22T00:40:33.329Z,8.70
2023-02-22T00:40:44.063Z,8.90
2023-02-22T00:40:55.134Z,8.60
2023-02-22T00:41:06.116Z,7.80
2023-02-22T00:41:17.113Z,8.10
2023-02-22T00:41:27.807Z,8.60
2023-02-22T00:41:38.745Z,8.20
2023-02-22T00:41:49.520Z,8.50
2023-02-22T00:42:00.717Z,8.50
2023-02-22T00:42:11.326Z,8.80
2023-02-22T00:42:22.089Z,8.50
2023-02-22T00:42:33.139Z,8.20
2023-02-22T00:42:44.114Z,7.30
2023-02-22T00:42:54.879Z,8.10
2023-02-22T00:43:05.945Z,7.80
2023-02-22T00:43:16.896Z,7.40
2023-02-22T00:43:27.663Z,7.40
2023-02-22T00:43:38.729Z,8.40
2023-02-22T00:43:49.692Z,8.90
2023-02-22T00:44:00.445Z,8.90
2023-02-22T00:44:11.502Z,8.00
2023-02-22T00:44:22.475Z,7.40
2023-02-22T00:44:33.266Z,7.80
2023-02-22T00:44:44.309Z,9.00
2023-02-22T00:44:55.293Z,9.20
2023-02-22T00:45:06.137Z,7.70
2023-02-22T00:45:16.617Z,7.80
2023-02-22T00:45:27.615Z,8.50
2023-02-22T00:45:38.499Z,10.50
2023-02-22T00:45:48.999Z,10.70
2023-02-22T00:45:59.960Z,9.80
2023-02-22T00:46:10.791Z,7.60
2023-02-22T00:46:21.267Z,8.50
2023-02-22T00:46:32.244Z,8.40
2023-02-22T00:46:43.043Z,8.20
2023-02-22T00:46:53.573Z,8.50
2023-02-22T00:47:04.518Z,9.80
2023-02-22T00:47:15.346Z,10.10
2023-02-22T00:47:25.820Z,10.80
2023-02-22T00:47:36.791Z,8.00
2023-02-22T00:47:47.576Z,7.40
2023-02-22T00:47:58.628Z,6.90
2023-02-22T00:48:09.605Z,7.70
2023-02-22T00:48:20.378Z,7.20
2023-02-22T00:48:31.416Z,6.50
2023-02-22T00:48:42.370Z,6.60
2023-02-22T00:48:53.172Z,6.90
2023-02-22T00:49:04.202Z,7.20
2023-02-22T00:49:15.191Z,7.10
2023-02-22T00:49:25.958Z,8.10
2023-02-22T00:49:37.039Z,9.00
2023-02-22T00:49:47.991Z,10.70
2023-02-22T00:49:58.765Z,10.30
2023-02-22T00:50:09.841Z,9.20
2023-02-22T00:50:20.855Z,7.50
2023-02-22T00:50:31.626Z,7.40
2023-02-22T00:50:42.672Z,7.80
2023-02-22T00:50:53.632Z,8.00
2023-02-22T00:51:04.422Z,8.30
2023-02-22T00:51:15.731Z,8.10
2023-02-22T00:51:26.260Z,7.40
2023-02-22T00:51:37.026Z,7.40
2023-02-22T00:51:48.068Z,9.90
2023-02-22T00:51:59.066Z,11.30
2023-02-22T00:52:09.824Z,11.20
2023-02-22T00:52:20.859Z,8.10
2023-02-22T00:52:31.826Z,8.40
2023-02-22T00:52:42.593Z,8.20
2023-02-22T00:52:53.658Z,7.20
2023-02-22T00:53:04.659Z,6.70
2023-02-22T00:53:15.399Z,6.00
2023-02-22T00:53:26.487Z,6.40
2023-02-22T00:53:37.428Z,7.30
2023-02-22T00:53:48.198Z,8.40
2023-02-22T00:53:59.234Z,8.00
2023-02-22T00:54:10.222Z,7.90
2023-02-22T00:54:20.971Z,7.90
2023-02-22T00:54:32.026Z,8.40
2023-02-22T00:54:42.991Z,7.10
2023-02-22T00:54:53.746Z,8.80
2023-02-22T00:55:04.801Z,9.30
2023-02-22T00:55:15.777Z,8.20
2023-02-22T00:55:26.558Z,8.40
2023-02-22T00:55:37.612Z,9.10
2023-02-22T00:55:48.576Z,8.70
2023-02-22T00:55:59.344Z,7.70
2023-02-22T00:56:10.418Z,7.30
2023-02-22T00:56:21.382Z,7.00
2023-02-22T00:56:32.172Z,6.50
2023-02-22T00:56:43.212Z,7.00
2023-02-22T00:56:54.178Z,6.60
2023-02-22T00:57:04.962Z,7.60
2023-02-22T00:57:18.253Z,7.70
2023-02-22T00:57:26.734Z,8.50
2023-02-22T00:57:37.492Z,7.80
2023-02-22T00:57:48.535Z,8.20
2023-02-22T00:57:59.518Z,7.60
2023-02-22T00:58:10.299Z,8.90
2023-02-22T00:58:21.316Z,8.20
2023-02-22T00:58:32.290Z,7.70
2023-02-22T00:58:43.064Z,7.00
2023-02-22T00:58:54.110Z,6.90
2023-02-22T00:59:05.084Z,6.80
2023-02-22T00:59:15.849Z,6.10
2023-02-22T00:59:26.905Z,6.20
2023-02-22T00:59:37.873Z,5.80
2023-02-22T00:59:48.653Z,6.20
2023-02-22T00:59:59.711Z,8.60
2023-02-22T01:00:10.690Z,9.50
2023-02-22T01:00:21.438Z,9.40
2023-02-22T01:00:32.491Z,7.40
2023-02-22T01:00:43.483Z,6.60
2023-02-22T01:00:54.307Z,7.60
2023-02-22T01:01:04.811Z,9.50
2023-02-22T01:01:16.142Z,10.30
2023-02-22T01:01:26.479Z,8.90
2023-02-22T01:01:37.677Z,8.40
2023-02-22T01:01:48.122Z,7.70
2023-02-22T01:01:58.944Z,8.50
2023-02-22T01:02:09.664Z,8.80
2023-02-22T01:02:20.702Z,9.80
2023-02-22T01:02:31.659Z,11.60
2023-02-22T01:02:42.253Z,11.40
2023-02-22T01:02:53.241Z,10.20
2023-02-22T01:03:04.026Z,10.30
2023-02-22T01:03:15.085Z,10.40
2023-02-22T01:03:25.608Z,11.10
2023-02-22T01:03:36.428Z,9.10
2023-02-22T01:03:47.485Z,9.00
2023-02-22T01:03:58.453Z,7.20
2023-02-22T01:04:09.252Z,7.60
2023-02-22T01:04:20.327Z,7.40
2023-02-22T01:04:31.265Z,7.30
2023-02-22T01:04:42.134Z,7.10
2023-02-22T01:04:52.701Z,6.60
2023-02-22T01:05:03.671Z,8.70
2023-02-22T01:05:14.466Z,9.00
2023-02-22T01:05:25.138Z,9.50
2023-02-22T01:05:36.114Z,8.50
2023-02-22T01:05:47.001Z,9.00
2023-02-22T01:05:57.644Z,9.40
2023-02-22T01:06:08.629Z,9.20
2023-02-22T01:06:19.388Z,8.60
2023-02-22T01:06:30.441Z,7.30
2023-02-22T01:06:41.432Z,6.80
2023-02-22T01:06:52.213Z,7.30
2023-02-22T01:07:03.246Z,8.40
2023-02-22T01:07:14.264Z,9.00
2023-02-22T01:07:24.994Z,9.20
2023-02-22T01:07:36.046Z,7.70
2023-02-22T01:07:47.023Z,8.20
2023-02-22T01:07:57.839Z,7.10
2023-02-22T01:08:08.864Z,7.30
2023-02-22T01:08:19.828Z,7.60
2023-02-22T01:08:30.615Z,9.30
2023-02-22T01:08:41.672Z,8.90
2023-02-22T01:08:52.641Z,8.10
2023-02-22T01:09:03.430Z,7.00
2023-02-22T01:09:14.480Z,7.40
2023-02-22T01:09:25.463Z,7.70
2023-02-22T01:09:36.215Z,8.30
2023-02-22T01:09:47.295Z,8.40
2023-02-22T01:09:58.241Z,7.70
2023-02-22T01:10:09.022Z,7.20
2023-02-22T01:10:20.094Z,7.50
2023-02-22T01:10:31.093Z,7.10
2023-02-22T01:10:41.859Z,7.30
2023-02-22T01:10:52.905Z,7.20
2023-02-22T01:11:03.894Z,8.50
2023-02-22T01:11:15.086Z,8.00
2023-02-22T01:11:25.655Z,7.10
2023-02-22T01:11:36.642Z,6.90
2023-02-22T01:11:47.412Z,6.40
2023-02-22T01:11:58.439Z,7.80
2023-02-22T01:12:09.402Z,8.40
2023-02-22T01:12:20.168Z,9.10
2023-02-22T01:12:31.217Z,7.40
2023-02-22T01:12:42.190Z,6.60
2023-02-22T01:12:52.963Z,5.70
2023-02-22T01:13:04.012Z,5.40
2023-02-22T01:13:14.998Z,6.60
2023-02-22T01:13:25.770Z,7.90
2023-02-22T01:13:36.811Z,7.70
2023-02-22T01:13:47.785Z,7.30
2023-02-22T01:13:58.552Z,6.90
2023-02-22T01:14:09.628Z,7.30
2023-02-22T01:14:20.572Z,9.10
2023-02-22T01:14:31.357Z,8.10
2023-02-22T01:14:42.396Z,7.70
2023-02-22T01:14:53.368Z,7.20
2023-02-22T01:15:04.142Z,6.60
2023-02-22T01:15:15.205Z,7.10
2023-02-22T01:15:26.161Z,7.50
2023-02-22T01:15:36.943Z,7.80
2023-02-22T01:15:47.976Z,6.50
2023-02-22T01:15:58.951Z,7.30
2023-02-22T01:16:09.741Z,7.40
2023-02-22T01:16:20.796Z,8.20
2023-02-22T01:16:31.818Z,8.90
2023-02-22T01:16:42.593Z,9.00
2023-02-22T01:16:53.150Z,8.00
2023-02-22T01:17:04.090Z,7.80
2023-02-22T01:17:14.850Z,7.80
2023-02-22T01:17:25.913Z,7.10
2023-02-22T01:17:36.867Z,6.80
2023-02-22T01:17:47.631Z,7.10
2023-02-22T01:17:58.678Z,7.20
2023-02-22T01:18:09.656Z,7.00
2023-02-22T01:18:20.428Z,6.30
2023-02-22T01:18:31.476Z,6.40
2023-02-22T01:18:42.440Z,6.50
2023-02-22T01:18:53.212Z,6.50
2023-02-22T01:19:04.250Z,7.30
2023-02-22T01:19:15.253Z,9.60
2023-02-22T01:19:26.003Z,8.60
2023-02-22T01:19:37.065Z,7.60
2023-02-22T01:19:48.014Z,6.30
2023-02-22T01:19:58.780Z,6.80
2023-02-22T01:20:09.827Z,6.70
2023-02-22T01:20:20.792Z,6.20
2023-02-22T01:20:31.565Z,7.50
2023-02-22T01:20:42.616Z,7.90
2023-02-22T01:20:53.578Z,7.70
2023-02-22T01:21:04.355Z,8.50
2023-02-22T01:21:15.828Z,8.30
2023-02-22T01:21:26.328Z,7.10
2023-02-22T01:21:37.097Z,7.50
2023-02-22T01:21:48.148Z,7.90
2023-02-22T01:21:59.140Z,8.00
2023-02-22T01:22:09.897Z,8.00
2023-02-22T01:22:20.964Z,7.00
2023-02-22T01:22:31.931Z,7.80
2023-02-22T01:22:42.700Z,8.70
2023-02-22T01:22:53.756Z,8.70
2023-02-22T01:23:04.706Z,8.20
2023-02-22T01:23:15.501Z,7.70
2023-02-22T01:23:26.544Z,8.60
2023-02-22T01:23:37.514Z,7.80
2023-02-22T01:23:48.283Z,7.40
2023-02-22T01:23:59.330Z,7.90
2023-02-22T01:24:10.352Z,7.80
2023-02-22T01:24:21.103Z,8.00
2023-02-22T01:24:32.165Z,8.40
2023-02-22T01:24:43.120Z,8.30
2023-02-22T01:24:53.887Z,8.60
2023-02-22T01:25:04.932Z,7.90
2023-02-22T01:25:15.901Z,8.30
2023-02-22T01:25:26.674Z,8.00
2023-02-22T01:25:37.725Z,7.80
2023-02-22T01:25:48.701Z,7.20
2023-02-22T01:25:59.456Z,6.80
2023-02-22T01:26:10.524Z,7.20
2023-02-22T01:26:21.549Z,7.40
2023-02-22T01:26:32.327Z,6.80
2023-02-22T01:26:43.394Z,8.00
2023-02-22T01:26:54.369Z,8.60
2023-02-22T01:27:05.110Z,9.60
2023-02-22T01:27:16.174Z,8.70
2023-02-22T01:27:27.146Z,9.30
2023-02-22T01:27:37.915Z,7.70
2023-02-22T01:27:48.960Z,7.30
2023-02-22T01:27:59.925Z,7.00
2023-02-22T01:28:10.726Z,7.10
2023-02-22T01:28:21.748Z,9.00
2023-02-22T01:28:32.738Z,8.60
2023-02-22T01:28:43.491Z,8.40
2023-02-22T01:28:54.539Z,6.90
2023-02-22T01:29:05.512Z,6.80
2023-02-22T01:29:16.280Z,6.80
2023-02-22T01:29:27.336Z,6.10
2023-02-22T01:29:38.304Z,5.80
2023-02-22T01:29:49.064Z,6.00
2023-02-22T01:30:00.160Z,7.50
2023-02-22T01:30:11.122Z,7.60
2023-02-22T01:30:21.973Z,7.70
2023-02-22T01:30:32.541Z,7.30
2023-02-22T01:30:43.585Z,9.20
2023-02-22T01:30:54.453Z,9.70
2023-02-22T01:31:05.487Z,9.90
2023-02-22T01:31:16.867Z,7.40
2023-02-22T01:31:27.175Z,6.80
2023-02-22T01:31:37.699Z,7.20
2023-02-22T01:31:48.700Z,7.00
2023-02-22T01:31:59.437Z,6.70
2023-02-22T01:32:10.509Z,7.30
2023-02-22T01:32:21.526Z,7.70
2023-02-22T01:32:32.289Z,7.80
2023-02-22T01:32:43.300Z,10.00
2023-02-22T01:32:53.991Z,9.50
2023-02-22T01:33:04.778Z,8.30
2023-02-22T01:33:15.784Z,6.90
2023-02-22T01:33:26.798Z,7.50
2023-02-22T01:33:37.558Z,6.80
2023-02-22T01:33:48.605Z,7.80
2023-02-22T01:33:59.658Z,7.80
2023-02-22T01:34:10.411Z,7.70
2023-02-22T01:34:21.472Z,7.40
2023-02-22T01:34:32.445Z,7.70
2023-02-22T01:34:43.215Z,8.40
2023-02-22T01:34:54.280Z,8.70
2023-02-22T01:35:05.250Z,8.40
2023-02-22T01:35:16.197Z,8.50
2023-02-22T01:35:27.243Z,7.90
2023-02-22T01:35:38.235Z,7.20
2023-02-22T01:35:49.050Z,9.00
2023-02-22T01:36:00.213Z,9.50
2023-02-22T01:36:10.615Z,9.50
2023-02-22T01:36:21.392Z,8.20
2023-02-22T01:36:32.456Z,6.90
2023-02-22T01:36:43.422Z,7.20
2023-02-22T01:36:54.258Z,7.20
2023-02-22T01:37:05.253Z,7.80
2023-02-22T01:37:16.221Z,8.20
2023-02-22T01:37:27.002Z,9.90
2023-02-22T01:37:38.068Z,10.60
2023-02-22T01:37:49.023Z,10.10
2023-02-22T01:37:59.992Z,8.00
2023-02-22T01:38:11.045Z,7.60
2023-02-22T01:38:22.017Z,8.20
2023-02-22T01:38:32.785Z,8.30
2023-02-22T01:38:43.855Z,9.30
2023-02-22T01:38:54.820Z,9.20
2023-02-22T01:39:05.583Z,9.70
2023-02-22T01:39:16.647Z,9.20
2023-02-22T01:39:27.621Z,10.90
2023-02-22T01:39:38.395Z,9.80
2023-02-22T01:39:49.444Z,9.10
2023-02-22T01:40:00.414Z,7.00
2023-02-22T01:40:11.196Z,7.30
2023-02-22T01:40:22.219Z,8.10
2023-02-22T01:40:33.189Z,8.30
2023-02-22T01:40:43.956Z,7.70
2023-02-22T01:40:55.018Z,7.80
2023-02-22T01:41:05.996Z,8.80
2023-02-22T01:41:17.167Z,9.00
2023-02-22T01:41:27.755Z,8.00
2023-02-22T01:41:38.722Z,9.60
2023-02-22T01:41:49.512Z,8.80
2023-02-22T01:42:00.568Z,8.50
2023-02-22T01:42:11.527Z,9.40
2023-02-22T01:42:22.291Z,10.80
2023-02-22T01:42:33.340Z,11.40
2023-02-22T01:42:44.312Z,10.40
2023-02-22T01:42:55.085Z,9.80
2023-02-22T01:43:06.136Z,9.30
2023-02-22T01:43:17.107Z,7.70
2023-02-22T01:43:27.896Z,8.20
2023-02-22T01:43:38.936Z,7.80
2023-02-22T01:43:49.925Z,8.80
2023-02-22T01:44:00.668Z,9.40
2023-02-22T01:44:11.747Z,9.20
2023-02-22T01:44:22.700Z,8.80
2023-02-22T01:44:33.460Z,8.80
2023-02-22T01:44:44.510Z,9.80
2023-02-22T01:44:55.495Z,10.00
2023-02-22T01:45:06.250Z,9.50
2023-02-22T01:45:17.284Z,9.40
2023-02-22T01:45:28.268Z,8.50
2023-02-22T01:45:39.016Z,8.00
2023-02-22T01:45:50.109Z,6.80
2023-02-22T01:46:01.132Z,7.10
2023-02-22T01:46:11.936Z,7.60
2023-02-22T01:46:23.037Z,6.80
2023-02-22T01:46:34.023Z,7.70
2023-02-22T01:46:44.786Z,6.70
2023-02-22T01:46:55.826Z,6.30
2023-02-22T01:47:06.792Z,7.00
2023-02-22T01:47:17.560Z,8.20
2023-02-22T01:47:28.605Z,9.60
2023-02-22T01:47:39.576Z,8.00
2023-02-22T01:47:50.346Z,6.60
2023-02-22T01:48:01.417Z,6.70
2023-02-22T01:48:12.374Z,6.50
2023-02-22T01:48:23.144Z,6.60
2023-02-22T01:48:34.217Z,7.70
2023-02-22T01:48:45.195Z,8.30
2023-02-22T01:48:55.952Z,8.20
2023-02-22T01:49:07.020Z,6.50
2023-02-22T01:49:17.984Z,6.50
2023-02-22T01:49:28.743Z,6.70
2023-02-22T01:49:39.788Z,7.10
2023-02-22T01:49:50.763Z,7.30
2023-02-22T01:50:01.529Z,7.10
2023-02-22T01:50:12.597Z,6.60
2023-02-22T01:50:23.575Z,6.00
2023-02-22T01:50:34.396Z,6.70
2023-02-22T01:50:45.412Z,6.30
2023-02-22T01:50:56.398Z,6.10
2023-02-22T01:51:07.184Z,6.90
2023-02-22T01:51:18.535Z,6.90
2023-02-22T01:51:29.062Z,7.10
2023-02-22T01:51:39.894Z,5.80
2023-02-22T01:51:50.398Z,6.30
2023-02-22T01:52:01.347Z,5.20
2023-02-22T01:52:12.111Z,6.20
2023-02-22T01:52:23.163Z,5.90
2023-02-22T01:52:34.127Z,6.80
2023-02-22T01:52:44.894Z,5.70
2023-02-22T01:52:55.988Z,5.70
2023-02-22T01:53:06.971Z,5.70
2023-02-22T01:53:17.740Z,6.30
2023-02-22T01:53:28.784Z,7.00
2023-02-22T01:53:39.780Z,6.30
2023-02-22T01:53:50.534Z,5.50
2023-02-22T01:54:01.582Z,5.90
2023-02-22T01:54:12.550Z,5.90
2023-02-22T01:54:23.307Z,5.90
2023-02-22T01:54:34.362Z,5.60
2023-02-22T01:54:45.330Z,5.60
2023-02-22T01:54:56.104Z,6.30
2023-02-22T01:55:07.143Z,6.00
2023-02-22T01:55:18.134Z,5.80
2023-02-22T01:55:28.896Z,5.40
2023-02-22T01:55:39.927Z,5.90
2023-02-22T01:55:50.915Z,6.90
2023-02-22T01:56:01.659Z,6.20
2023-02-22T01:56:12.730Z,5.40
2023-02-22T01:56:23.723Z,5.60
2023-02-22T01:56:34.480Z,5.50
2023-02-22T01:56:45.560Z,5.30
2023-02-22T01:56:56.546Z,5.80
2023-02-22T01:57:07.338Z,6.20
2023-02-22T01:57:17.861Z,5.10
2023-02-22T01:57:28.818Z,4.80
2023-02-22T01:57:39.605Z,5.20
2023-02-22T01:57:50.635Z,4.90
2023-02-22T01:58:01.606Z,5.30
2023-02-22T01:58:12.402Z,5.20
2023-02-22T01:58:23.458Z,5.10
2023-02-22T01:58:34.426Z,4.60
2023-02-22T01:58:45.239Z,4.10
2023-02-22T01:58:56.342Z,5.80
2023-02-22T01:59:07.255Z,6.20
2023-02-22T01:59:18.049Z,5.70
2023-02-22T01:59:29.067Z,5.10
2023-02-22T01:59:40.033Z,6.10
2023-02-22T01:59:50.845Z,6.20
2023-02-22T02:00:01.881Z,6.60
2023-02-22T02:00:12.833Z,6.50
2023-02-22T02:00:23.612Z,6.70
2023-02-22T02:00:34.665Z,6.30
2023-02-22T02:00:45.626Z,5.50
2023-02-22T02:00:56.560Z,4.90
2023-02-22T02:01:07.005Z,4.20
2023-02-22T02:01:18.414Z,4.40
2023-02-22T02:01:28.700Z,4.80
2023-02-22T02:01:39.756Z,4.80
2023-02-22T02:01:50.772Z,5.50
2023-02-22T02:02:01.526Z,6.60
2023-02-22T02:02:12.572Z,6.40
2023-02-22T02:02:23.548Z,5.60
2023-02-22T02:02:34.328Z,5.00
2023-02-22T02:02:45.370Z,5.30
2023-02-22T02:02:56.358Z,6.10
2023-02-22T02:03:07.118Z,6.50
2023-02-22T02:03:18.173Z,5.70
2023-02-22T02:03:29.178Z,5.00
2023-02-22T02:03:40.025Z,4.90
2023-02-22T02:03:50.545Z,5.00
2023-02-22T02:04:01.512Z,5.50
2023-02-22T02:04:12.330Z,5.80
2023-02-22T02:04:22.852Z,6.00
2023-02-22T02:04:33.822Z,5.30
2023-02-22T02:04:44.682Z,4.50
2023-02-22T02:04:55.214Z,5.10
2023-02-22T02:05:06.181Z,5.40
2023-02-22T02:05:16.973Z,5.50
2023-02-22T02:05:27.993Z,4.60
2023-02-22T02:05:38.964Z,4.50
2023-02-22T02:05:49.709Z,5.90
2023-02-22T02:06:00.779Z,6.00
2023-02-22T02:06:11.745Z,5.90
2023-02-22T02:06:22.525Z,4.90
2023-02-22T02:06:33.601Z,4.20
2023-02-22T02:06:44.546Z,4.80
2023-02-22T02:06:55.323Z,4.80
2023-02-22T02:07:06.419Z,5.60
2023-02-22T02:07:17.367Z,5.60
2023-02-22T02:07:28.138Z,6.50
2023-02-22T02:07:39.187Z,6.70
2023-02-22T02:07:50.163Z,6.40
2023-02-22T02:08:00.924Z,5.40
2023-02-22T02:08:11.975Z,5.10
2023-02-22T02:08:22.946Z,5.00
2023-02-22T02:08:33.721Z,5.90
2023-02-22T02:08:44.757Z,7.00
2023-02-22T02:08:55.728Z,7.10
2023-02-22T02:09:06.482Z,5.90
2023-02-22T02:09:17.549Z,6.10
2023-02-22T02:09:28.509Z,5.60
2023-02-22T02:09:39.282Z,5.50
2023-02-22T02:09:50.385Z,4.20
2023-02-22T02:10:01.337Z,4.20
2023-02-22T02:10:12.102Z,5.20
2023-02-22T02:10:23.172Z,5.40
2023-02-22T02:10:34.142Z,6.70
2023-02-22T02:10:44.912Z,7.10
2023-02-22T02:10:55.979Z,7.70
2023-02-22T02:11:09.060Z,6.60
2023-02-22T02:11:17.942Z,5.00
2023-02-22T02:11:28.585Z,4.90
2023-02-22T02:11:39.567Z,5.00
2023-02-22T02:11:50.334Z,5.30
2023-02-22T02:12:01.414Z,6.50
2023-02-22T02:12:12.375Z,7.00
2023-02-22T02:12:23.147Z,7.50
2023-02-22T02:12:34.225Z,6.20
2023-02-22T02:12:45.171Z,5.40
2023-02-22T02:12:55.938Z,4.30
2023-02-22T02:13:06.985Z,4.20
2023-02-22T02:13:17.960Z,4.90
2023-02-22T02:13:28.733Z,5.30
2023-02-22T02:13:39.771Z,5.70
2023-02-22T02:13:50.789Z,5.60
2023-02-22T02:14:01.531Z,6.70
2023-02-22T02:14:12.592Z,6.80
2023-02-22T02:14:23.576Z,5.60
2023-02-22T02:14:34.325Z,5.10
2023-02-22T02:14:45.409Z,4.20
2023-02-22T02:14:56.351Z,4.80
2023-02-22T02:15:07.119Z,4.90
2023-02-22T02:15:18.185Z,4.50
2023-02-22T02:15:29.131Z,5.20
2023-02-22T02:15:39.890Z,5.50
2023-02-22T02:15:50.946Z,5.90
2023-02-22T02:16:01.934Z,5.80
2023-02-22T02:16:12.696Z,5.00
2023-02-22T02:16:23.802Z,5.40
2023-02-22T02:16:34.788Z,5.20
2023-02-22T02:16:45.545Z,5.90
2023-02-22T02:16:56.633Z,6.00
2023-02-22T02:17:07.597Z,5.80
2023-02-22T02:17:18.345Z,5.30
2023-02-22T02:17:29.392Z,4.50
2023-02-22T02:17:40.360Z,4.70
2023-02-22T02:17:51.124Z,4.00
2023-02-22T02:18:02.180Z,4.50
2023-02-22T02:18:13.156Z,5.00
2023-02-22T02:18:23.935Z,5.20
2023-02-22T02:18:35.003Z,4.80
2023-02-22T02:18:45.582Z,4.50
2023-02-22T02:18:56.341Z,5.30
2023-02-22T02:19:07.426Z,5.10
2023-02-22T02:19:18.371Z,5.60
2023-02-22T02:19:29.157Z,4.60
2023-02-22T02:19:40.196Z,4.40
2023-02-22T02:19:51.177Z,5.00
2023-02-22T02:20:01.954Z,5.80
2023-02-22T02:20:13.001Z,6.40
2023-02-22T02:20:23.967Z,7.70
2023-02-22T02:20:34.733Z,7.40
2023-02-22T02:20:45.784Z,6.00
2023-02-22T02:20:56.855Z,5.20
2023-02-22T02:21:07.575Z,5.20
2023-02-22T02:21:18.716Z,5.10
2023-02-22T02:21:29.660Z,5.40
2023-02-22T02:21:40.441Z,6.00
2023-02-22T02:21:51.501Z,5.50
2023-02-22T02:22:02.461Z,5.00
2023-02-22T02:22:13.243Z,4.70
2023-02-22T02:22:24.286Z,5.80
2023-02-22T02:22:35.252Z,6.00
2023-02-22T02:22:46.031Z,5.30
2023-02-22T02:22:57.068Z,6.10
2023-02-22T02:23:08.091Z,8.30
2023-02-22T02:23:18.815Z,8.40
2023-02-22T02:23:29.860Z,7.90
2023-02-22T02:23:40.849Z,5.20
2023-02-22T02:23:51.602Z,6.20
2023-02-22T02:24:02.643Z,5.50
2023-02-22T02:24:13.610Z,5.30
2023-02-22T02:24:24.384Z,5.00
2023-02-22T02:24:35.458Z,5.30
2023-02-22T02:24:46.439Z,5.20